Terminal Aerodrome Forecast
Issued by NWS

Home | Current Version | Previous Version | Text Only | Print | Product List | Glossary On
Versions: 1 2 3 4 5 6 7 8 9 10 11 12 13 14
973
FTUS43 KMQT 252328
TAFSAW
TAF
KSAW 252328Z 2600/2624 06005KT P6SM FEW250
     FM260300 20003KT P6SM SCT250
     FM261400 24008KT P6SM SCT200
     FM261900 27010KT P6SM BKN150
     FM262000 32010KT P6SM BKN090
     FM262200 34010KT P6SM VCSH OVC035=

USA.gov is the U.S. government's official web portal to all federal, state and local government web resources and services.